Terminal Aerodrome Forecast
Issued by NWS

Home | Current Version | Previous Version | Text Only | Print | Product List | Glossary On
Versions: 1 2 3 4 5 6 7 8 9 10 11 12 13
583
FTUS46 KLOX 121145
TAFOXR
TAF
KOXR 121145Z 1212/1312 VRB03KT P6SM BKN200
     FM122100 27010KT P6SM BKN200
     FM130300 VRB03KT P6SM BKN200
     FM130800 VRB03KT 3SM BR BKN003=

USA.gov is the U.S. government's official web portal to all federal, state and local government web resources and services.